createdAt,value
2019-03-24T00:00:20.727Z,1022.77
2019-03-24T00:01:20.730Z,1022.73
2019-03-24T00:02:20.726Z,1022.75
2019-03-24T00:03:20.730Z,1022.75
2019-03-24T00:04:20.736Z,1022.74
2019-03-24T00:05:20.742Z,1022.75
2019-03-24T00:06:20.756Z,1022.75
2019-03-24T00:07:20.757Z,1022.77
2019-03-24T00:08:20.753Z,1022.77
2019-03-24T00:09:20.756Z,1022.77
2019-03-24T00:10:20.763Z,1022.76
2019-03-24T00:11:20.764Z,1022.75
2019-03-24T00:12:20.776Z,1022.75
2019-03-24T00:13:20.776Z,1022.78
2019-03-24T00:14:20.779Z,1022.79
2019-03-24T00:15:26.259Z,1022.79
2019-03-24T00:16:20.785Z,1022.75
2019-03-24T00:17:20.790Z,1022.73
2019-03-24T00:18:20.802Z,1022.75
2019-03-24T00:19:20.798Z,1022.72
2019-03-24T00:20:20.796Z,1022.72
2019-03-24T00:21:20.808Z,1022.74
2019-03-24T00:22:20.810Z,1022.72
2019-03-24T00:23:20.811Z,1022.71
2019-03-24T00:24:20.826Z,1022.72
2019-03-24T00:25:20.826Z,1022.73
2019-03-24T00:26:20.826Z,1022.72
2019-03-24T00:27:20.832Z,1022.69
2019-03-24T00:28:20.837Z,1022.71
2019-03-24T00:29:20.842Z,1022.73
2019-03-24T00:30:20.845Z,1022.71
2019-03-24T00:31:20.848Z,1022.68
2019-03-24T00:32:20.854Z,1022.68
2019-03-24T00:33:20.856Z,1022.69
2019-03-24T00:34:20.859Z,1022.67
2019-03-24T00:35:20.865Z,1022.64
2019-03-24T00:36:20.874Z,1022.64
2019-03-24T00:37:20.875Z,1022.66
2019-03-24T00:38:20.877Z,1022.65
2019-03-24T00:39:20.894Z,1022.64
2019-03-24T00:40:20.885Z,1022.66
2019-03-24T00:41:20.891Z,1022.58
2019-03-24T00:42:20.895Z,1022.58
2019-03-24T00:43:21.049Z,1022.56
2019-03-24T00:44:20.904Z,1022.55
2019-03-24T00:45:20.903Z,1022.55
2019-03-24T00:46:20.919Z,1022.53
2019-03-24T00:47:20.914Z,1022.51
2019-03-24T00:48:20.936Z,1022.53
2019-03-24T00:49:20.927Z,1022.49
2019-03-24T00:50:20.926Z,1022.47
2019-03-24T00:51:20.935Z,1022.48
2019-03-24T00:52:20.937Z,1022.46
2019-03-24T00:53:20.943Z,1022.47
2019-03-24T00:54:20.945Z,1022.47
2019-03-24T00:55:20.951Z,1022.46
2019-03-24T00:56:20.951Z,1022.47
2019-03-24T00:57:20.975Z,1022.49
2019-03-24T00:58:20.959Z,1022.51
2019-03-24T00:59:20.964Z,1022.47
2019-03-24T01:00:20.970Z,1022.49
2019-03-24T01:01:20.976Z,1022.46
2019-03-24T01:02:20.985Z,1022.48
2019-03-24T01:03:20.982Z,1022.44
2019-03-24T01:04:20.986Z,1022.42
2019-03-24T01:05:20.992Z,1022.44
2019-03-24T01:06:20.995Z,1022.38
2019-03-24T01:07:21.000Z,1022.43
2019-03-24T01:08:21.008Z,1022.37
2019-03-24T01:09:21.014Z,1022.39
2019-03-24T01:10:21.012Z,1022.41
2019-03-24T01:11:21.020Z,1022.40
2019-03-24T01:12:21.023Z,1022.36
2019-03-24T01:13:21.029Z,1022.37
2019-03-24T01:14:21.028Z,1022.37
2019-03-24T01:15:21.034Z,1022.33
2019-03-24T01:16:21.042Z,1022.35
2019-03-24T01:17:21.038Z,1022.31
2019-03-24T01:18:21.070Z,1022.30
2019-03-24T01:19:21.083Z,1022.31
2019-03-24T01:20:21.054Z,1022.31
2019-03-24T01:21:21.055Z,1022.33
2019-03-24T01:22:21.064Z,1022.30
2019-03-24T01:23:21.066Z,1022.31
2019-03-24T01:24:21.071Z,1022.32
2019-03-24T01:25:21.078Z,1022.32
2019-03-24T01:26:21.077Z,1022.33
2019-03-24T01:27:21.087Z,1022.33
2019-03-24T01:28:21.087Z,1022.34
2019-03-24T01:29:21.090Z,1022.35
2019-03-24T01:30:21.100Z,1022.33
2019-03-24T01:31:21.101Z,1022.32
2019-03-24T01:32:21.110Z,1022.31
2019-03-24T01:33:21.112Z,1022.32
2019-03-24T01:34:21.114Z,1022.33
2019-03-24T01:35:21.120Z,1022.35
2019-03-24T01:36:21.120Z,1022.35
2019-03-24T01:37:21.122Z,1022.38
2019-03-24T01:38:21.128Z,1022.38
2019-03-24T01:39:21.138Z,1022.38
2019-03-24T01:40:21.132Z,1022.37
2019-03-24T01:41:21.138Z,1022.33
2019-03-24T01:42:21.148Z,1022.32
2019-03-24T01:43:21.162Z,1022.33
2019-03-24T01:44:21.174Z,1022.34
2019-03-24T01:45:21.157Z,1022.38
2019-03-24T01:46:21.160Z,1022.35
2019-03-24T01:47:21.165Z,1022.33
2019-03-24T01:48:21.168Z,1022.35
2019-03-24T01:49:21.174Z,1022.31
2019-03-24T01:50:21.175Z,1022.33
2019-03-24T01:51:21.181Z,1022.31
2019-03-24T01:52:21.189Z,1022.30
2019-03-24T01:53:21.193Z,1022.30
2019-03-24T01:54:21.196Z,1022.31
2019-03-24T01:55:21.202Z,1022.31
2019-03-24T01:56:21.204Z,1022.28
2019-03-24T01:57:21.216Z,1022.29
2019-03-24T01:58:21.211Z,1022.31
2019-03-24T01:59:21.218Z,1022.29
2019-03-24T02:00:21.226Z,1022.27
2019-03-24T02:01:21.225Z,1022.29
2019-03-24T02:02:21.230Z,1022.27
2019-03-24T02:03:21.235Z,1022.26
2019-03-24T02:04:21.258Z,1022.30
2019-03-24T02:05:21.243Z,1022.28
2019-03-24T02:06:21.246Z,1022.27
2019-03-24T02:07:21.256Z,1022.25
2019-03-24T02:08:21.256Z,1022.23
2019-03-24T02:09:21.257Z,1022.26
2019-03-24T02:10:21.271Z,1022.20
2019-03-24T02:11:21.276Z,1022.23
2019-03-24T02:12:21.270Z,1022.22
2019-03-24T02:13:21.277Z,1022.25
2019-03-24T02:14:21.280Z,1022.23
2019-03-24T02:15:21.303Z,1022.24
2019-03-24T02:16:21.288Z,1022.25
2019-03-24T02:17:21.300Z,1022.21
2019-03-24T02:18:21.296Z,1022.20
2019-03-24T02:19:21.300Z,1022.21
2019-03-24T02:20:21.296Z,1022.23
2019-03-24T02:21:21.310Z,1022.19
2019-03-24T02:22:21.304Z,1022.19
2019-03-24T02:23:21.316Z,1022.19
2019-03-24T02:24:21.316Z,1022.13
2019-03-24T02:25:21.321Z,1022.15
2019-03-24T02:26:21.319Z,1022.15
2019-03-24T02:27:21.367Z,1022.14
2019-03-24T02:28:22.060Z,1022.11
2019-03-24T02:29:21.340Z,1022.12
2019-03-24T02:30:21.349Z,1022.18
2019-03-24T02:31:21.351Z,1022.14
2019-03-24T02:32:22.060Z,1022.15
2019-03-24T02:33:21.364Z,1022.15
2019-03-24T02:34:21.550Z,1022.13
2019-03-24T02:35:21.368Z,1022.12
2019-03-24T02:36:21.385Z,1022.10
2019-03-24T02:37:21.368Z,1022.06
2019-03-24T02:38:21.382Z,1022.06
2019-03-24T02:39:21.384Z,1022.05
2019-03-24T02:40:21.394Z,1022.09
2019-03-24T02:41:21.389Z,1022.03
2019-03-24T02:42:21.534Z,1022.06
2019-03-24T02:43:21.391Z,1022.04
2019-03-24T02:44:21.414Z,1022.03
2019-03-24T02:45:21.405Z,1022.04
2019-03-24T02:46:24.681Z,1022.02
2019-03-24T02:47:21.415Z,1022.01
2019-03-24T02:48:21.529Z,1022.03
2019-03-24T02:49:21.422Z,1022.02
2019-03-24T02:50:21.525Z,1022.01
2019-03-24T02:51:21.431Z,1022.00
2019-03-24T02:52:21.446Z,1022.02
2019-03-24T02:53:21.443Z,1022.04
2019-03-24T02:54:21.462Z,1022.02
2019-03-24T02:55:21.451Z,1022.01
2019-03-24T02:56:21.456Z,1022.01
2019-03-24T02:57:21.464Z,1022.03
2019-03-24T02:58:21.463Z,1022.01
2019-03-24T02:59:21.462Z,1021.98
2019-03-24T03:00:21.481Z,1021.98
2019-03-24T03:01:21.488Z,1021.97
2019-03-24T03:02:21.482Z,1021.96
2019-03-24T03:03:21.481Z,1021.94
2019-03-24T03:04:21.481Z,1021.98
2019-03-24T03:05:21.495Z,1021.96
2019-03-24T03:06:21.499Z,1021.95
2019-03-24T03:07:21.492Z,1021.97
2019-03-24T03:08:21.500Z,1021.95
2019-03-24T03:09:21.503Z,1021.95
2019-03-24T03:10:21.533Z,1021.96
2019-03-24T03:11:21.519Z,1021.92
2019-03-24T03:12:22.074Z,1021.95
2019-03-24T03:13:21.519Z,1021.95
2019-03-24T03:14:21.547Z,1021.95
2019-03-24T03:15:21.532Z,1021.99
2019-03-24T03:16:21.536Z,1021.92
2019-03-24T03:17:21.537Z,1021.94
2019-03-24T03:18:21.559Z,1021.94
2019-03-24T03:19:21.554Z,1021.93
2019-03-24T03:20:21.548Z,1021.90
2019-03-24T03:21:21.559Z,1021.90
2019-03-24T03:22:21.575Z,1021.89
2019-03-24T03:23:21.562Z,1021.87
2019-03-24T03:24:21.570Z,1021.90
2019-03-24T03:25:21.567Z,1021.88
2019-03-24T03:26:21.575Z,1021.91
2019-03-24T03:27:21.605Z,1021.85
2019-03-24T03:28:21.577Z,1021.89
2019-03-24T03:29:21.584Z,1021.87
2019-03-24T03:30:21.602Z,1021.86
2019-03-24T03:31:21.594Z,1021.87
2019-03-24T03:32:21.597Z,1021.87
2019-03-24T03:33:21.617Z,1021.89
2019-03-24T03:34:21.606Z,1021.87
2019-03-24T03:35:21.622Z,1021.90
2019-03-24T03:36:21.616Z,1021.89
2019-03-24T03:37:21.630Z,1021.85
2019-03-24T03:38:21.624Z,1021.88
2019-03-24T03:39:21.629Z,1021.89
2019-03-24T03:40:21.651Z,1021.86
2019-03-24T03:41:21.636Z,1021.85
2019-03-24T03:42:21.635Z,1021.84
2019-03-24T03:43:21.651Z,1021.85
2019-03-24T03:44:21.659Z,1021.84
2019-03-24T03:45:21.655Z,1021.81
2019-03-24T03:46:21.656Z,1021.83
2019-03-24T03:47:21.752Z,1021.83
2019-03-24T03:48:21.664Z,1021.80
2019-03-24T03:49:21.666Z,1021.79
2019-03-24T03:50:21.683Z,1021.83
2019-03-24T03:51:21.679Z,1021.83
2019-03-24T03:52:21.681Z,1021.83
2019-03-24T03:53:21.688Z,1021.81
2019-03-24T03:54:21.691Z,1021.82
2019-03-24T03:55:21.706Z,1021.82
2019-03-24T03:56:21.691Z,1021.78
2019-03-24T03:57:21.719Z,1021.76
2019-03-24T03:58:21.713Z,1021.76
2019-03-24T03:59:21.708Z,1021.74
2019-03-24T04:00:21.707Z,1021.74
2019-03-24T04:01:21.716Z,1021.76
2019-03-24T04:02:21.717Z,1021.75
2019-03-24T04:03:21.723Z,1021.72
2019-03-24T04:04:21.731Z,1021.75
2019-03-24T04:05:21.732Z,1021.75
2019-03-24T04:06:21.734Z,1021.77
2019-03-24T04:07:21.741Z,1021.75
2019-03-24T04:08:21.739Z,1021.75
2019-03-24T04:09:21.751Z,1021.75
2019-03-24T04:10:21.760Z,1021.71
2019-03-24T04:11:21.757Z,1021.73
2019-03-24T04:12:21.764Z,1021.67
2019-03-24T04:13:21.771Z,1021.70
2019-03-24T04:14:21.767Z,1021.71
2019-03-24T04:15:21.762Z,1021.72
2019-03-24T04:16:21.779Z,1021.68
2019-03-24T04:17:21.784Z,1021.69
2019-03-24T04:18:21.787Z,1021.62
2019-03-24T04:19:21.789Z,1021.62
2019-03-24T04:20:21.793Z,1021.60
2019-03-24T04:21:21.805Z,1021.61
2019-03-24T04:22:21.796Z,1021.59
2019-03-24T04:23:21.808Z,1021.62
2019-03-24T04:24:21.803Z,1021.57
2019-03-24T04:25:21.814Z,1021.60
2019-03-24T04:26:21.818Z,1021.58
2019-03-24T04:27:21.823Z,1021.58
2019-03-24T04:28:21.826Z,1021.57
2019-03-24T04:29:21.849Z,1021.53
2019-03-24T04:30:21.845Z,1021.54
2019-03-24T04:31:21.845Z,1021.52
2019-03-24T04:32:21.854Z,1021.51
2019-03-24T04:33:21.862Z,1021.50
2019-03-24T04:34:21.858Z,1021.49
2019-03-24T04:35:21.870Z,1021.50
2019-03-24T04:36:21.876Z,1021.48
2019-03-24T04:37:21.861Z,1021.51
2019-03-24T04:38:21.874Z,1021.50
2019-03-24T04:39:21.875Z,1021.50
2019-03-24T04:40:21.876Z,1021.50
2019-03-24T04:41:21.873Z,1021.48
2019-03-24T04:42:21.882Z,1021.49
2019-03-24T04:43:21.885Z,1021.51
2019-03-24T04:44:21.891Z,1021.54
2019-03-24T04:45:21.893Z,1021.54
2019-03-24T04:46:21.919Z,1021.56
2019-03-24T04:47:21.895Z,1021.56
2019-03-24T04:48:21.911Z,1021.57
2019-03-24T04:49:21.917Z,1021.56
2019-03-24T04:50:21.913Z,1021.55
2019-03-24T04:51:21.907Z,1021.55
2019-03-24T04:52:21.927Z,1021.55
2019-03-24T04:53:21.925Z,1021.53
2019-03-24T04:54:21.931Z,1021.54
2019-03-24T04:55:21.950Z,1021.52
2019-03-24T04:56:21.943Z,1021.53
2019-03-24T04:57:22.145Z,1021.50
2019-03-24T04:58:21.950Z,1021.53
2019-03-24T04:59:21.953Z,1021.51
2019-03-24T05:00:21.953Z,1021.51
2019-03-24T05:01:21.958Z,1021.50
2019-03-24T05:02:21.969Z,1021.54
2019-03-24T05:03:21.966Z,1021.55
2019-03-24T05:04:21.971Z,1021.54
2019-03-24T05:05:21.977Z,1021.55
2019-03-24T05:06:21.975Z,1021.54
2019-03-24T05:07:21.986Z,1021.53
2019-03-24T05:08:21.988Z,1021.54
2019-03-24T05:09:22.003Z,1021.54
2019-03-24T05:10:21.983Z,1021.56
2019-03-24T05:11:21.997Z,1021.53
2019-03-24T05:12:22.004Z,1021.50
2019-03-24T05:13:22.007Z,1021.55
2019-03-24T05:14:22.010Z,1021.53
2019-03-24T05:15:22.038Z,1021.55
2019-03-24T05:16:22.024Z,1021.55
2019-03-24T05:17:26.934Z,1021.57
2019-03-24T05:18:22.032Z,1021.57
2019-03-24T05:19:22.618Z,1021.54
2019-03-24T05:20:22.033Z,1021.55
2019-03-24T05:21:22.063Z,1021.55
2019-03-24T05:22:22.052Z,1021.57
2019-03-24T05:23:22.055Z,1021.58
2019-03-24T05:24:22.049Z,1021.56
2019-03-24T05:25:23.690Z,1021.56
2019-03-24T05:26:22.062Z,1021.57
2019-03-24T05:27:22.082Z,1021.56
2019-03-24T05:28:22.068Z,1021.55
2019-03-24T05:29:22.624Z,1021.53
2019-03-24T05:30:22.072Z,1021.54
2019-03-24T05:31:22.090Z,1021.53
2019-03-24T05:32:22.082Z,1021.53
2019-03-24T05:33:22.094Z,1021.52
2019-03-24T05:34:22.088Z,1021.50
2019-03-24T05:35:22.090Z,1021.50
2019-03-24T05:36:22.098Z,1021.51
2019-03-24T05:37:22.109Z,1021.52
2019-03-24T05:38:22.108Z,1021.50
2019-03-24T05:39:22.112Z,1021.47
2019-03-24T05:40:22.115Z,1021.50
2019-03-24T05:41:22.116Z,1021.49
2019-03-24T05:42:22.125Z,1021.49
2019-03-24T05:43:22.131Z,1021.50
2019-03-24T05:44:22.139Z,1021.48
2019-03-24T05:45:22.147Z,1021.49
2019-03-24T05:46:22.139Z,1021.51
2019-03-24T05:47:22.139Z,1021.49
2019-03-24T05:48:22.157Z,1021.48
2019-03-24T05:49:22.157Z,1021.49
2019-03-24T05:50:22.153Z,1021.50
2019-03-24T05:51:22.163Z,1021.48
2019-03-24T05:52:22.161Z,1021.48
2019-03-24T05:53:22.170Z,1021.47
2019-03-24T05:54:22.173Z,1021.47
2019-03-24T05:55:22.183Z,1021.45
2019-03-24T05:56:22.182Z,1021.48
2019-03-24T05:57:22.187Z,1021.47
2019-03-24T05:58:22.195Z,1021.46
2019-03-24T05:59:22.195Z,1021.47
2019-03-24T06:00:22.192Z,1021.49
2019-03-24T06:01:22.201Z,1021.47
2019-03-24T06:02:22.211Z,1021.47
2019-03-24T06:03:22.207Z,1021.46
2019-03-24T06:04:22.221Z,1021.47
2019-03-24T06:05:22.217Z,1021.48
2019-03-24T06:06:22.221Z,1021.51
2019-03-24T06:07:22.221Z,1021.48
2019-03-24T06:08:22.239Z,1021.47
2019-03-24T06:09:22.233Z,1021.46
2019-03-24T06:10:22.235Z,1021.48
2019-03-24T06:11:22.241Z,1021.47
2019-03-24T06:12:22.247Z,1021.50
2019-03-24T06:13:22.250Z,1021.52
2019-03-24T06:14:22.255Z,1021.51
2019-03-24T06:15:22.257Z,1021.54
2019-03-24T06:16:22.260Z,1021.55
2019-03-24T06:17:22.269Z,1021.54
2019-03-24T06:18:22.272Z,1021.56
2019-03-24T06:19:22.272Z,1021.54
2019-03-24T06:20:22.277Z,1021.54
2019-03-24T06:21:22.283Z,1021.53
2019-03-24T06:22:22.287Z,1021.53
2019-03-24T06:23:22.299Z,1021.55
2019-03-24T06:24:22.295Z,1021.56
2019-03-24T06:25:22.290Z,1021.53
2019-03-24T06:26:22.334Z,1021.56
2019-03-24T06:27:22.308Z,1021.57
2019-03-24T06:28:22.310Z,1021.56
2019-03-24T06:29:22.314Z,1021.54
2019-03-24T06:30:22.320Z,1021.55
2019-03-24T06:31:22.324Z,1021.59
2019-03-24T06:32:22.326Z,1021.56
2019-03-24T06:33:22.336Z,1021.60
2019-03-24T06:34:22.342Z,1021.61
2019-03-24T06:35:22.342Z,1021.62
2019-03-24T06:36:22.341Z,1021.62
2019-03-24T06:37:22.351Z,1021.57
2019-03-24T06:38:22.348Z,1021.62
2019-03-24T06:39:22.362Z,1021.59
2019-03-24T06:40:22.353Z,1021.61
2019-03-24T06:41:22.369Z,1021.58
2019-03-24T06:42:22.372Z,1021.61
2019-03-24T06:43:22.372Z,1021.59
2019-03-24T06:44:22.376Z,1021.59
2019-03-24T06:45:28.455Z,1021.57
2019-03-24T06:46:22.386Z,1021.58
2019-03-24T06:47:22.390Z,1021.53
2019-03-24T06:48:22.397Z,1021.51
2019-03-24T06:49:22.396Z,1021.53
2019-03-24T06:50:22.410Z,1021.53
2019-03-24T06:51:22.400Z,1021.48
2019-03-24T06:52:22.412Z,1021.53
2019-03-24T06:53:22.408Z,1021.53
2019-03-24T06:54:22.434Z,1021.52
2019-03-24T06:55:22.440Z,1021.48
2019-03-24T06:56:22.424Z,1021.48
2019-03-24T06:57:22.428Z,1021.48
2019-03-24T06:58:22.436Z,1021.51
2019-03-24T06:59:22.442Z,1021.50
2019-03-24T07:00:22.443Z,1021.47
2019-03-24T07:01:22.446Z,1021.49
2019-03-24T07:02:22.450Z,1021.48
2019-03-24T07:03:22.464Z,1021.50
2019-03-24T07:04:22.460Z,1021.50
2019-03-24T07:05:22.463Z,1021.48
2019-03-24T07:06:22.466Z,1021.46
2019-03-24T07:07:22.468Z,1021.47
2019-03-24T07:08:22.484Z,1021.46
2019-03-24T07:09:22.480Z,1021.44
2019-03-24T07:10:22.489Z,1021.46
2019-03-24T07:11:22.487Z,1021.44
2019-03-24T07:12:22.500Z,1021.46
2019-03-24T07:13:22.495Z,1021.47
2019-03-24T07:14:22.498Z,1021.45
2019-03-24T07:15:22.504Z,1021.45
2019-03-24T07:16:22.506Z,1021.50
2019-03-24T07:17:22.518Z,1021.49
2019-03-24T07:18:22.513Z,1021.49
2019-03-24T07:19:22.520Z,1021.50
2019-03-24T07:20:22.531Z,1021.46
2019-03-24T07:21:22.531Z,1021.50
2019-03-24T07:22:22.550Z,1021.48
2019-03-24T07:23:22.532Z,1021.49
2019-03-24T07:24:22.543Z,1021.48
2019-03-24T07:25:22.544Z,1021.47
2019-03-24T07:26:22.547Z,1021.47
2019-03-24T07:27:22.554Z,1021.49
2019-03-24T07:28:24.826Z,1021.45
2019-03-24T07:29:22.560Z,1021.42
2019-03-24T07:30:22.569Z,1021.41
2019-03-24T07:31:22.576Z,1021.39
2019-03-24T07:32:22.576Z,1021.40
2019-03-24T07:33:22.581Z,1021.43
2019-03-24T07:34:22.599Z,1021.38
2019-03-24T07:35:22.588Z,1021.37
2019-03-24T07:36:22.590Z,1021.39
2019-03-24T07:37:22.591Z,1021.37
2019-03-24T07:38:22.599Z,1021.36
2019-03-24T07:39:22.603Z,1021.35
2019-03-24T07:40:22.605Z,1021.36
2019-03-24T07:41:22.628Z,1021.39
2019-03-24T07:42:22.616Z,1021.36
2019-03-24T07:43:22.619Z,1021.34
2019-03-24T07:44:22.623Z,1021.31
2019-03-24T07:45:22.629Z,1021.33
2019-03-24T07:46:22.637Z,1021.31
2019-03-24T07:47:22.649Z,1021.30
2019-03-24T07:48:22.637Z,1021.30
2019-03-24T07:49:22.644Z,1021.32
2019-03-24T07:50:22.648Z,1021.31
2019-03-24T07:51:22.658Z,1021.29
2019-03-24T07:52:22.657Z,1021.30
2019-03-24T07:53:22.662Z,1021.30
2019-03-24T07:54:22.666Z,1021.25
2019-03-24T07:55:22.671Z,1021.25
2019-03-24T07:56:22.673Z,1021.25
2019-03-24T07:57:22.678Z,1021.23
2019-03-24T07:58:22.674Z,1021.25
2019-03-24T07:59:22.682Z,1021.23
2019-03-24T08:00:22.688Z,1021.21
2019-03-24T08:01:22.695Z,1021.23
2019-03-24T08:02:22.697Z,1021.21
2019-03-24T08:03:22.700Z,1021.23
2019-03-24T08:04:22.700Z,1021.24
2019-03-24T08:05:22.704Z,1021.25
2019-03-24T08:06:22.717Z,1021.24
2019-03-24T08:07:22.718Z,1021.22
2019-03-24T08:08:22.720Z,1021.21
2019-03-24T08:09:22.726Z,1021.18
2019-03-24T08:10:22.734Z,1021.17
2019-03-24T08:11:22.728Z,1021.17
2019-03-24T08:12:22.728Z,1021.18
2019-03-24T08:13:22.738Z,1021.12
2019-03-24T08:14:22.775Z,1021.17
2019-03-24T08:15:22.750Z,1021.16
2019-03-24T08:16:22.753Z,1021.14
2019-03-24T08:17:22.766Z,1021.12
2019-03-24T08:18:29.883Z,1021.12
2019-03-24T08:19:22.776Z,1021.12
2019-03-24T08:20:22.774Z,1021.13
2019-03-24T08:21:22.776Z,1021.12
2019-03-24T08:22:22.778Z,1021.12
2019-03-24T08:23:22.776Z,1021.09
2019-03-24T08:24:22.786Z,1021.09
2019-03-24T08:25:22.794Z,1021.07
2019-03-24T08:26:22.806Z,1021.07
2019-03-24T08:27:22.798Z,1021.06
2019-03-24T08:28:23.265Z,1021.03
2019-03-24T08:29:22.808Z,1021.01
2019-03-24T08:30:22.796Z,1021.02
2019-03-24T08:31:22.814Z,1020.98
2019-03-24T08:32:22.816Z,1020.99
2019-03-24T08:33:22.829Z,1020.96
2019-03-24T08:34:22.832Z,1020.96
2019-03-24T08:35:22.829Z,1020.92
2019-03-24T08:36:22.836Z,1020.92
2019-03-24T08:37:22.838Z,1020.90
2019-03-24T08:38:22.855Z,1020.88
2019-03-24T08:39:22.836Z,1020.87
2019-03-24T08:40:22.850Z,1020.85
2019-03-24T08:41:22.853Z,1020.89
2019-03-24T08:42:22.877Z,1020.87
2019-03-24T08:43:22.865Z,1020.89
2019-03-24T08:44:22.866Z,1020.86
2019-03-24T08:45:22.872Z,1020.87
2019-03-24T08:46:22.877Z,1020.86
2019-03-24T08:47:22.881Z,1020.85
2019-03-24T08:48:22.887Z,1020.86
2019-03-24T08:49:22.891Z,1020.86
2019-03-24T08:50:22.890Z,1020.85
2019-03-24T08:51:22.892Z,1020.81
2019-03-24T08:52:22.904Z,1020.81
2019-03-24T08:53:22.906Z,1020.78
2019-03-24T08:54:22.907Z,1020.81
2019-03-24T08:55:22.910Z,1020.78
2019-03-24T08:56:22.916Z,1020.79
2019-03-24T08:57:22.921Z,1020.79
2019-03-24T08:58:22.916Z,1020.76
2019-03-24T08:59:22.928Z,1020.79
2019-03-24T09:00:30.706Z,1020.82
2019-03-24T09:01:22.937Z,1020.90
2019-03-24T09:02:22.940Z,1020.87
2019-03-24T09:03:22.946Z,1020.89
2019-03-24T09:04:22.946Z,1020.93
2019-03-24T09:05:22.954Z,1020.94
2019-03-24T09:06:22.958Z,1020.95
2019-03-24T09:07:22.958Z,1020.99
2019-03-24T09:08:22.964Z,1021.00
2019-03-24T09:09:22.966Z,1021.00
2019-03-24T09:10:22.978Z,1020.99
2019-03-24T09:11:30.880Z,1021.02
2019-03-24T09:12:23.002Z,1021.04
2019-03-24T09:13:22.988Z,1021.03
2019-03-24T09:14:22.993Z,1021.03
2019-03-24T09:15:22.997Z,1021.03
2019-03-24T09:16:22.998Z,1020.99
2019-03-24T09:17:23.015Z,1020.99
2019-03-24T09:18:23.041Z,1021.01
2019-03-24T09:19:23.016Z,1021.00
2019-03-24T09:20:23.014Z,1020.99
2019-03-24T09:21:23.024Z,1021.01
2019-03-24T09:22:23.022Z,1021.01
2019-03-24T09:23:23.027Z,1021.02
2019-03-24T09:24:23.030Z,1020.98
2019-03-24T09:25:23.067Z,1021.01
2019-03-24T09:26:23.039Z,1021.02
2019-03-24T09:27:23.046Z,1021.05
2019-03-24T09:28:23.044Z,1021.02
2019-03-24T09:29:23.055Z,1021.03
2019-03-24T09:30:23.054Z,1021.06
2019-03-24T09:31:23.058Z,1021.04
2019-03-24T09:32:23.076Z,1021.05
2019-03-24T09:33:23.070Z,1021.03
2019-03-24T09:34:23.082Z,1021.06
2019-03-24T09:35:23.081Z,1021.06
2019-03-24T09:36:23.081Z,1021.08
2019-03-24T09:37:23.090Z,1021.08
2019-03-24T09:38:23.087Z,1021.08
2019-03-24T09:39:23.092Z,1021.08
2019-03-24T09:40:23.096Z,1021.08
2019-03-24T09:41:23.092Z,1021.08
2019-03-24T09:42:23.107Z,1021.10
2019-03-24T09:43:23.115Z,1021.10
2019-03-24T09:44:23.101Z,1021.09
2019-03-24T09:45:23.119Z,1021.09
2019-03-24T09:46:23.132Z,1021.09
2019-03-24T09:47:23.140Z,1021.05
2019-03-24T09:48:23.129Z,1021.08
2019-03-24T09:49:23.130Z,1021.09
2019-03-24T09:50:23.138Z,1021.11
2019-03-24T09:51:23.140Z,1021.08
2019-03-24T09:52:23.145Z,1021.06
2019-03-24T09:53:23.148Z,1021.08
2019-03-24T09:54:23.152Z,1021.10
2019-03-24T09:55:23.152Z,1021.10
2019-03-24T09:56:23.166Z,1021.12
2019-03-24T09:57:23.170Z,1021.12
2019-03-24T09:58:23.186Z,1021.14
2019-03-24T09:59:23.188Z,1021.11
2019-03-24T10:00:23.180Z,1021.14
2019-03-24T10:01:23.181Z,1021.15
2019-03-24T10:02:23.182Z,1021.13
2019-03-24T10:03:23.192Z,1021.15
2019-03-24T10:04:23.196Z,1021.12
2019-03-24T10:05:23.214Z,1021.12
2019-03-24T10:06:23.204Z,1021.13
2019-03-24T10:07:23.204Z,1021.12
2019-03-24T10:08:23.210Z,1021.13
2019-03-24T10:09:23.215Z,1021.14
2019-03-24T10:10:23.220Z,1021.17
2019-03-24T10:11:23.224Z,1021.14
2019-03-24T10:12:23.229Z,1021.13
2019-03-24T10:13:23.230Z,1021.14
2019-03-24T10:14:23.238Z,1021.11
2019-03-24T10:15:23.240Z,1021.14
2019-03-24T10:16:23.268Z,1021.14
2019-03-24T10:17:23.251Z,1021.13
2019-03-24T10:18:23.257Z,1021.13
2019-03-24T10:19:23.257Z,1021.10
2019-03-24T10:20:23.259Z,1021.10
2019-03-24T10:21:23.260Z,1021.07
2019-03-24T10:22:23.270Z,1021.13
2019-03-24T10:23:23.278Z,1021.08
2019-03-24T10:24:23.280Z,1021.09
2019-03-24T10:25:23.279Z,1021.06
2019-03-24T10:26:23.298Z,1021.08
2019-03-24T10:27:23.288Z,1021.06
2019-03-24T10:28:23.297Z,1021.06
2019-03-24T10:29:23.296Z,1021.04
2019-03-24T10:30:23.298Z,1021.03
2019-03-24T10:31:23.318Z,1021.07
2019-03-24T10:32:23.310Z,1021.09
2019-03-24T10:33:23.312Z,1021.05
2019-03-24T10:34:23.328Z,1021.06
2019-03-24T10:35:23.324Z,1021.07
2019-03-24T10:36:23.326Z,1021.06
2019-03-24T10:37:23.335Z,1021.03
2019-03-24T10:38:23.338Z,1021.04
2019-03-24T10:39:23.332Z,1021.04
2019-03-24T10:40:28.575Z,1021.08
2019-03-24T10:41:23.344Z,1021.08
2019-03-24T10:42:23.350Z,1021.08
2019-03-24T10:43:23.357Z,1021.09
2019-03-24T10:44:23.374Z,1021.11
2019-03-24T10:45:23.364Z,1021.06
2019-03-24T10:46:23.366Z,1021.00
2019-03-24T10:47:23.370Z,1021.01
2019-03-24T10:48:33.148Z,1021.07
2019-03-24T10:49:25.174Z,1021.08
2019-03-24T10:50:23.384Z,1021.07
2019-03-24T10:51:23.391Z,1021.06
2019-03-24T10:52:23.392Z,1021.04
2019-03-24T10:53:23.395Z,1021.08
2019-03-24T10:54:23.407Z,1021.05
2019-03-24T10:55:23.408Z,1021.06
2019-03-24T10:56:23.410Z,1021.04
2019-03-24T10:57:23.410Z,1021.04
2019-03-24T10:58:23.420Z,1021.02
2019-03-24T10:59:23.422Z,1021.05
2019-03-24T11:00:23.427Z,1021.01
2019-03-24T11:01:23.427Z,1021.04
2019-03-24T11:02:23.457Z,1021.01
2019-03-24T11:03:23.436Z,1021.03
2019-03-24T11:04:23.444Z,1021.02
2019-03-24T11:05:23.449Z,1021.01
2019-03-24T11:06:23.449Z,1021.01
2019-03-24T11:07:23.450Z,1021.04
2019-03-24T11:08:23.458Z,1020.97
2019-03-24T11:09:23.461Z,1020.98
2019-03-24T11:10:23.468Z,1020.97
2019-03-24T11:11:23.467Z,1020.97
2019-03-24T11:12:23.474Z,1020.91
2019-03-24T11:13:23.484Z,1020.92
2019-03-24T11:14:23.483Z,1020.86
2019-03-24T11:15:23.488Z,1020.83
2019-03-24T11:16:23.496Z,1020.80
2019-03-24T11:17:23.498Z,1020.74
2019-03-24T11:18:23.552Z,1020.72
2019-03-24T11:19:23.506Z,1020.71
2019-03-24T11:20:23.504Z,1020.68
2019-03-24T11:21:23.513Z,1020.64
2019-03-24T11:22:23.514Z,1020.60
2019-03-24T11:23:23.508Z,1020.58
2019-03-24T11:24:23.530Z,1020.56
2019-03-24T11:25:23.528Z,1020.57
2019-03-24T11:26:23.544Z,1020.56
2019-03-24T11:27:23.536Z,1020.55
2019-03-24T11:28:23.561Z,1020.60
2019-03-24T11:29:23.544Z,1020.56
2019-03-24T11:30:23.568Z,1020.53
2019-03-24T11:31:23.552Z,1020.52
2019-03-24T11:32:23.554Z,1020.50
2019-03-24T11:33:23.568Z,1020.51
2019-03-24T11:34:23.565Z,1020.51
2019-03-24T11:35:23.574Z,1020.45
2019-03-24T11:36:23.579Z,1020.37
2019-03-24T11:37:23.581Z,1020.41
2019-03-24T11:38:23.580Z,1020.40
2019-03-24T11:39:23.602Z,1020.37
2019-03-24T11:40:23.586Z,1020.33
2019-03-24T11:41:23.600Z,1020.30
2019-03-24T11:42:23.614Z,1020.28
2019-03-24T11:43:23.606Z,1020.30
2019-03-24T11:44:23.610Z,1020.30
2019-03-24T11:45:23.618Z,1020.29
2019-03-24T11:46:23.619Z,1020.35
2019-03-24T11:47:26.889Z,1020.32
2019-03-24T11:48:23.626Z,1020.30
2019-03-24T11:49:23.630Z,1020.33
2019-03-24T11:50:23.637Z,1020.33
2019-03-24T11:51:23.642Z,1020.35
2019-03-24T11:52:23.652Z,1020.33
2019-03-24T11:53:23.650Z,1020.28
2019-03-24T11:54:23.650Z,1020.24
2019-03-24T11:55:23.650Z,1020.23
2019-03-24T11:56:23.656Z,1020.21
2019-03-24T11:57:23.668Z,1020.19
2019-03-24T11:58:23.668Z,1020.18
2019-03-24T11:59:23.670Z,1020.18
2019-03-24T12:00:23.677Z,1020.21
2019-03-24T12:01:23.683Z,1020.19
2019-03-24T12:02:23.675Z,1020.16
2019-03-24T12:03:25.402Z,1020.17
2019-03-24T12:04:23.776Z,1020.16
2019-03-24T12:05:23.708Z,1020.13